Aviation Digital Data Service (ADDS)

Output produced by TAFs form (1200 UTC 31 October 2014)
found at http://aviationweather.gov/adds/tafs/
 
KFMN 311126Z 3112/0112 10010KT P6SM SCT250 
     FM311800 13013KT P6SM BKN200 
     FM010000 10010KT P6SM SCT150 
     FM010300 09013KT P6SM VCSH SCT060 BKN120 
     FM010900 09011KT P6SM SCT050 BKN090